Blackall, Australia
Current Conditions -  °F | °C
As of 9:00 AM on Sunday 23 Nov 2014 (Local Time) from YLRE Reporting Station
Clear Clear  
Wind Chill: 88°   Ceiling: Unl
Heat Index: 89°   Visibility: 6mi
Dew Point: 64°   Wind: 17mph
Humidity: 46%   Direction: 40°NE
Pressure: 29.94"   Gusts: NA
Location:  24.42°S, 145.47°E
Report Text: YLRE 222300Z 04015KT CAVOK 31/18 Q1014
Loading
Personal Weather Stations






























Interactive Weather Map New forecast layout! Learn more

10-Day Weather Forecast

Advertisements
Track Severe Weather on mobile